Time;durP1;ratioP1;P1;durP2;ratioP2;P2;SDS_P1;SDS_P2;PMS_P1;PMS_P2;Temp;Humidity;BMP_temperature;BMP_pressure;BME280_temperature;BME280_humidity;BME280_pressure;Samples;Min_cycle;Max_cycle;Signal;HPM_P1;HPM_P2
2021/09/07 02:46:06;;;;;;;24.80;14.30;;;13.00;95.30;;;;;;5522675;23;20083;-79
2021/09/07 02:48:31;;;;;;;28.35;15.45;;;13.00;95.10;;;;;;4837328;29;20038;-79
2021/09/07 02:51:00;;;;;;;25.30;14.65;;;13.00;95.30;;;;;;4869552;29;20363;-79
2021/09/07 02:53:27;;;;;;;24.40;13.40;;;13.00;95.10;;;;;;4860880;29;20343;-79
2021/09/07 02:55:52;;;;;;;23.92;14.48;;;12.90;95.00;;;;;;4845238;29;20094;-79
2021/09/07 02:58:19;;;;;;;26.15;14.98;;;12.90;94.90;;;;;;4845228;29;20138;-79
2021/09/07 03:00:45;;;;;;;23.35;13.98;;;13.00;94.80;;;;;;4860153;29;20033;-79
2021/09/07 03:03:11;;;;;;;26.42;14.75;;;12.90;94.60;;;;;;4860782;29;20029;-79
2021/09/07 03:05:38;;;;;;;19.85;13.55;;;13.00;94.60;;;;;;4860650;29;20022;-79
2021/09/07 03:08:06;;;;;;;29.67;16.30;;;12.90;94.50;;;;;;4861141;29;20025;-79
2021/09/07 03:10:34;;;;;;;29.42;15.48;;;12.90;94.50;;;;;;4860432;29;20408;-79
2021/09/07 03:13:00;;;;;;;22.48;13.93;;;12.90;94.50;;;;;;4860955;29;20033;-79
2021/09/07 03:15:26;;;;;;;26.60;14.75;;;12.80;94.50;;;;;;4860806;29;20021;-79
2021/09/07 03:17:52;;;;;;;28.60;14.75;;;12.80;94.40;;;;;;4861409;29;20319;-79
2021/09/07 03:20:18;;;;;;;29.00;14.68;;;12.80;94.20;;;;;;4842982;29;20072;-79
2021/09/07 03:22:44;;;;;;;24.10;14.48;;;12.80;94.30;;;;;;4826754;29;20030;-79
2021/09/07 03:25:12;;;;;;;30.77;14.80;;;12.80;94.30;;;;;;4827290;29;20073;-79
2021/09/07 03:27:38;;;;;;;;;;;12.70;94.30;;;;;;4850020;29;20270;-79
2021/09/07 03:30:05;;;;;;;27.38;16.02;;;12.70;94.20;;;;;;4845362;29;19911;-79
2021/09/07 03:32:31;;;;;;;25.85;15.18;;;12.70;94.40;;;;;;4860498;29;20065;-79
2021/09/07 03:34:56;;;;;;;27.42;15.35;;;12.70;94.20;;;;;;4860358;29;20033;-79
2021/09/07 03:37:22;;;;;;;27.48;15.27;;;12.60;94.20;;;;;;4860715;29;20396;-79
2021/09/07 03:39:49;;;;;;;24.10;13.77;;;12.60;94.20;;;;;;4860754;29;20036;-79
2021/09/07 03:42:15;;;;;;;22.48;14.02;;;12.60;94.20;;;;;;4860462;29;20032;-79
2021/09/07 03:44:42;;;;;;;23.95;13.50;;;12.60;94.30;;;;;;4844953;29;20041;-79
2021/09/07 03:47:08;;;;;;;27.35;14.52;;;12.60;94.40;;;;;;4871398;29;20053;-79
2021/09/07 03:49:35;;;;;;;22.50;14.38;;;12.50;94.30;;;;;;4860660;29;20051;-79
2021/09/07 03:52:00;;;;;;;25.38;14.77;;;12.50;94.20;;;;;;4860246;29;20041;-79
2021/09/07 03:54:27;;;;;;;28.70;15.18;;;12.50;94.30;;;;;;4860327;29;20035;-79
2021/09/07 03:56:54;;;;;;;28.23;14.40;;;12.50;94.30;;;;;;4875180;29;20223;-79
2021/09/07 03:59:20;;;;;;;27.43;14.67;;;12.40;94.30;;;;;;4876770;29;20037;-79
2021/09/07 04:01:48;;;;;;;31.40;14.40;;;12.40;94.30;;;;;;4875244;29;20073;-79
2021/09/07 04:04:16;;;;;;;26.55;14.82;;;12.40;94.20;;;;;;4860330;29;20081;-79
2021/09/07 04:06:43;;;;;;;29.42;15.25;;;12.40;94.20;;;;;;4875556;29;20034;-79
2021/09/07 04:09:09;;;;;;;31.98;16.27;;;12.40;94.30;;;;;;4875362;29;20096;-79
2021/09/07 04:11:35;;;;;;;35.72;16.60;;;12.40;94.30;;;;;;4875342;29;20040;-79
2021/09/07 04:14:04;;;;;;;42.13;17.77;;;12.40;94.30;;;;;;4875927;29;20066;-79
2021/09/07 04:16:30;;;;;;;28.33;15.48;;;12.40;94.30;;;;;;4854111;29;20026;-80
2021/09/07 04:18:56;;;;;;;29.55;14.45;;;12.40;94.30;;;;;;4856891;29;20446;-79
2021/09/07 04:21:22;;;;;;;33.67;17.25;;;12.40;94.40;;;;;;4856297;29;20036;-79
2021/09/07 04:23:48;;;;;;;36.78;15.65;;;12.40;94.50;;;;;;4841077;29;20030;-79
2021/09/07 04:26:14;;;;;;;31.33;16.13;;;12.30;94.50;;;;;;4841101;29;20026;-79
2021/09/07 04:28:39;;;;;;;29.02;14.75;;;12.30;94.60;;;;;;4872143;29;20035;-79
2021/09/07 04:31:05;;;;;;;27.90;14.40;;;12.40;94.70;;;;;;4859209;29;20033;-79
2021/09/07 04:33:31;;;;;;;24.35;14.13;;;12.40;94.70;;;;;;4875239;29;20036;-79
2021/09/07 04:35:57;;;;;;;22.65;14.23;;;12.40;94.80;;;;;;4859365;29;20033;-79
2021/09/07 04:38:23;;;;;;;33.90;13.85;;;12.40;95.00;;;;;;4875335;29;20036;-79
2021/09/07 04:40:48;;;;;;;27.73;14.68;;;12.50;95.10;;;;;;4859388;29;20026;-79
2021/09/07 04:43:14;;;;;;;29.05;14.85;;;12.60;95.10;;;;;;4876386;29;20029;-78
2021/09/07 04:45:41;;;;;;;20.58;12.82;;;12.60;95.30;;;;;;4876040;29;20325;-79
2021/09/07 04:48:08;;;;;;;30.90;14.48;;;12.70;95.40;;;;;;4876149;29;20042;-78
2021/09/07 04:50:34;;;;;;;27.67;13.87;;;12.70;95.30;;;;;;4844587;29;20037;-79
2021/09/07 04:53:00;;;;;;;23.80;14.55;;;12.80;95.40;;;;;;4859708;29;20100;-79
2021/09/07 04:55:26;;;;;;;31.88;14.15;;;12.90;95.40;;;;;;4876015;29;20041;-79
2021/09/07 04:57:51;;;;;;;35.33;14.10;;;13.00;95.40;;;;;;4844982;29;20040;-80
2021/09/07 05:00:18;;;;;;;34.20;14.10;;;13.10;95.30;;;;;;4844991;29;20029;-79
2021/09/07 05:02:43;;;;;;;26.60;12.82;;;13.20;95.40;;;;;;4844703;29;20037;-78
2021/09/07 05:05:09;;;;;;;29.60;14.50;;;13.30;95.10;;;;;;4859537;29;20064;-78
2021/09/07 05:07:36;;;;;;;32.28;15.10;;;13.40;95.20;;;;;;4870099;29;20025;-79
2021/09/07 05:10:02;;;;;;;35.30;14.60;;;13.40;95.10;;;;;;4840793;29;20144;-79
2021/09/07 05:12:28;;;;;;;31.07;14.47;;;13.50;94.90;;;;;;4867690;29;20117;-79
2021/09/07 05:14:54;;;;;;;39.50;14.40;;;13.60;94.90;;;;;;4869683;29;20049;-79
2021/09/07 05:17:21;;;;;;;32.75;14.15;;;13.70;95.10;;;;;;4877666;29;20029;-78
2021/09/07 05:19:46;;;;;;;28.27;13.95;;;13.90;95.10;;;;;;4852601;29;20136;-79
2021/09/07 05:22:12;;;;;;;42.25;15.32;;;14.00;94.70;;;;;;4848146;29;20033;-78
2021/09/07 05:24:38;;;;;;;43.85;15.50;;;14.10;94.60;;;;;;4883877;29;20053;-78
2021/09/07 05:27:04;;;;;;;33.20;14.73;;;14.30;94.60;;;;;;4851806;29;20044;-79
2021/09/07 05:29:30;;;;;;;38.10;14.57;;;14.50;94.20;;;;;;4848216;29;20102;-79
2021/09/07 05:31:56;;;;;;;34.78;14.77;;;14.60;93.80;;;;;;4866910;29;20025;-79
2021/09/07 05:34:22;;;;;;;33.85;15.80;;;14.70;93.80;;;;;;4845012;29;20043;-78
2021/09/07 05:36:48;;;;;;;36.17;14.67;;;14.90;93.60;;;;;;4846701;29;20040;-78
2021/09/07 05:39:14;;;;;;;27.80;14.00;;;15.00;93.30;;;;;;4873520;29;20329;-79
2021/09/07 05:41:40;;;;;;;30.75;15.80;;;15.20;92.90;;;;;;4873935;29;20028;-79
2021/09/07 05:44:06;;;;;;;37.03;15.63;;;15.30;92.70;;;;;;4875235;29;20050;-79
2021/09/07 05:46:33;;;;;;;37.60;14.80;;;15.50;92.70;;;;;;4857477;29;20045;-78
2021/09/07 05:48:58;;;;;;;42.70;15.50;;;15.60;92.30;;;;;;4867509;29;20093;-79
2021/09/07 05:51:24;;;;;;;35.33;14.38;;;15.60;91.70;;;;;;4876201;29;20025;-80
2021/09/07 05:53:50;;;;;;;29.05;13.60;;;15.70;91.60;;;;;;4862583;29;20022;-78
2021/09/07 05:56:17;;;;;;;39.33;15.02;;;15.80;91.50;;;;;;4874563;29;20032;-79
2021/09/07 05:58:43;;;;;;;29.02;14.15;;;15.90;91.50;;;;;;4872555;29;20029;-78
2021/09/07 06:01:09;;;;;;;32.20;13.50;;;16.10;91.40;;;;;;4894772;29;20040;-78
2021/09/07 06:03:35;;;;;;;31.60;13.73;;;16.30;91.10;;;;;;4859906;29;20033;-79
2021/09/07 06:06:01;;;;;;;26.05;14.00;;;16.40;90.40;;;;;;4842816;29;20025;-78
2021/09/07 06:08:28;;;;;;;26.45;14.43;;;16.40;89.80;;;;;;4869233;29;20039;-79
2021/09/07 06:10:54;;;;;;;27.88;14.48;;;16.50;90.10;;;;;;4853864;29;20037;-78
2021/09/07 06:13:21;;;;;;;27.25;12.93;;;16.60;89.50;;;;;;4871206;29;20034;-78
2021/09/07 06:15:48;;;;;;;32.08;15.00;;;16.70;90.10;;;;;;4890154;29;20033;-79
2021/09/07 06:18:14;;;;;;;32.33;15.23;;;16.70;89.40;;;;;;4887814;29;20092;-79
2021/09/07 06:20:40;;;;;;;29.23;15.52;;;16.70;89.60;;;;;;4884887;29;20170;-78
2021/09/07 06:23:05;;;;;;;34.03;15.38;;;16.70;89.70;;;;;;4889983;29;20025;-78
2021/09/07 06:25:31;;;;;;;37.28;16.45;;;16.80;90.00;;;;;;4871198;29;20036;-78
2021/09/07 06:27:57;;;;;;;32.75;16.02;;;16.80;89.30;;;;;;4865544;29;20144;-78
2021/09/07 06:30:23;;;;;;;34.28;16.80;;;16.90;89.40;;;;;;4880296;29;20025;-78
2021/09/07 06:32:49;;;;;;;34.63;16.92;;;16.90;88.50;;;;;;4880198;29;20033;-78
2021/09/07 06:35:15;;;;;;;30.88;16.20;;;17.00;88.50;;;;;;4859833;29;20056;-78
2021/09/07 06:37:42;;;;;;;32.58;15.35;;;17.10;88.90;;;;;;4880417;29;20064;-78
2021/09/07 06:40:09;;;;;;;38.03;15.85;;;17.30;88.00;;;;;;4866631;29;20024;-79
2021/09/07 06:42:35;;;;;;;42.13;18.08;;;17.50;87.20;;;;;;4888730;29;20059;-78
2021/09/07 06:45:02;;;;;;;39.17;17.67;;;17.70;87.40;;;;;;4879150;29;20021;-78
2021/09/07 06:47:28;;;;;;;45.38;16.65;;;17.80;86.30;;;;;;4876204;29;20048;-79
2021/09/07 06:49:53;;;;;;;32.85;16.67;;;18.00;85.40;;;;;;4872061;29;20029;-78
2021/09/07 06:52:20;;;;;;;37.63;16.75;;;18.10;84.40;;;;;;4874744;29;20101;-78
2021/09/07 06:54:47;;;;;;;31.42;17.60;;;18.30;84.10;;;;;;4882570;29;20037;-78
2021/09/07 06:57:12;;;;;;;46.70;17.42;;;18.50;82.30;;;;;;4874128;29;20248;-79
2021/09/07 06:59:38;;;;;;;35.55;16.95;;;18.60;81.80;;;;;;4870758;29;20049;-79
2021/09/07 07:02:04;;;;;;;30.48;15.23;;;18.80;81.30;;;;;;4873363;29;20025;-79
2021/09/07 07:04:30;;;;;;;40.95;17.08;;;18.90;81.50;;;;;;4873175;29;20065;-79
2021/09/07 07:06:55;;;;;;;36.13;16.10;;;19.10;81.30;;;;;;4862103;29;20347;-79
2021/09/07 07:09:21;;;;;;;32.28;15.93;;;19.30;81.20;;;;;;4857865;29;20075;-79
2021/09/07 07:11:47;;;;;;;31.15;15.20;;;19.30;80.90;;;;;;4857765;29;20034;-79
2021/09/07 07:14:13;;;;;;;39.30;15.93;;;19.40;81.40;;;;;;4867764;29;20059;-79
2021/09/07 07:16:39;;;;;;;29.13;15.32;;;19.40;80.40;;;;;;4869299;29;20036;-79
2021/09/07 07:19:04;;;;;;;34.33;17.42;;;19.40;80.90;;;;;;4878161;29;20104;-79
2021/09/07 07:21:30;;;;;;;41.30;17.15;;;19.40;80.70;;;;;;4881455;29;20105;-79
2021/09/07 07:23:56;;;;;;;39.28;16.33;;;19.50;79.10;;;;;;4889742;29;20025;-77
2021/09/07 07:26:22;;;;;;;47.13;17.20;;;19.40;80.10;;;;;;4857947;29;20036;-79
2021/09/07 07:28:48;;;;;;;37.60;15.98;;;19.40;79.30;;;;;;4871974;29;20037;-81
2021/09/07 07:31:14;;;;;;;34.47;16.52;;;19.40;78.70;;;;;;4860613;29;20037;-81
2021/09/07 07:33:39;;;;;;;43.78;17.05;;;19.40;79.50;;;;;;4873322;29;20046;-81
2021/09/07 07:36:05;;;;;;;47.83;17.25;;;19.40;80.20;;;;;;4873469;29;20056;-82
2021/09/07 07:38:31;;;;;;;40.50;17.02;;;19.60;79.60;;;;;;4873203;29;20037;-81
2021/09/07 07:40:57;;;;;;;29.80;15.85;;;19.70;79.40;;;;;;4857674;29;20105;-81
2021/09/07 07:43:25;;;;;;;32.88;16.70;;;19.70;79.90;;;;;;4871441;29;20103;-81
2021/09/07 07:45:51;;;;;;;28.50;15.70;;;19.80;78.20;;;;;;4850202;29;20213;-81
2021/09/07 07:48:17;;;;;;;35.45;14.80;;;20.00;79.10;;;;;;4860933;29;20033;-81
2021/09/07 07:50:43;;;;;;;36.17;16.23;;;20.30;78.00;;;;;;4858486;29;20029;-80
2021/09/07 07:53:09;;;;;;;29.38;14.32;;;20.70;77.80;;;;;;4874089;29;20040;-79
2021/09/07 07:55:35;;;;;;;32.70;14.30;;;20.80;77.40;;;;;;4874249;29;20102;-80
2021/09/07 07:58:00;;;;;;;27.38;14.52;;;21.10;77.20;;;;;;4858793;29;20032;-79
2021/09/07 08:00:26;;;;;;;29.33;14.75;;;21.30;73.60;;;;;;4856964;29;20101;-78
2021/09/07 08:02:52;;;;;;;31.60;13.80;;;21.30;73.70;;;;;;4876544;29;20244;-78
2021/09/07 08:05:18;;;;;;;32.22;13.15;;;21.40;73.50;;;;;;4873561;29;20029;-77
2021/09/07 08:07:43;;;;;;;29.33;12.77;;;21.30;73.00;;;;;;4878934;29;20073;-77
2021/09/07 08:10:10;;;;;;;28.58;12.18;;;21.30;71.50;;;;;;4884067;29;20048;-79
2021/09/07 08:12:35;;;;;;;33.90;11.03;;;21.20;71.20;;;;;;4855881;29;20037;-77
2021/09/07 08:15:01;;;;;;;34.97;11.63;;;21.30;71.60;;;;;;4867954;29;20097;-78
2021/09/07 08:17:27;;;;;;;23.50;11.68;;;21.30;71.90;;;;;;4863251;29;20237;-78
2021/09/07 08:19:53;;;;;;;24.63;11.45;;;21.40;72.00;;;;;;4860743;29;20061;-77
2021/09/07 08:22:18;;;;;;;24.85;10.93;;;21.70;71.10;;;;;;4858504;29;20048;-77
2021/09/07 08:24:45;;;;;;;25.80;11.10;;;21.80;69.40;;;;;;4865683;29;20020;-77
2021/09/07 08:27:11;;;;;;;22.17;11.50;;;21.80;71.00;;;;;;4857641;29;20021;-78
2021/09/07 08:29:37;;;;;;;22.42;11.88;;;22.00;71.30;;;;;;4872613;29;20025;-77
2021/09/07 08:32:03;;;;;;;30.27;11.63;;;22.20;70.50;;;;;;4875318;29;20057;-77
2021/09/07 08:34:29;;;;;;;26.85;11.68;;;22.50;69.60;;;;;;4852632;29;20025;-77
2021/09/07 08:36:54;;;;;;;27.05;13.40;;;22.60;69.20;;;;;;4856545;29;20221;-78
2021/09/07 08:39:20;;;;;;;37.72;14.00;;;22.70;67.60;;;;;;4877960;29;20052;-78
2021/09/07 08:41:46;;;;;;;24.30;12.10;;;22.70;65.80;;;;;;4880514;29;20104;-77
2021/09/07 08:44:16;;;;;;;26.00;12.32;;;22.70;67.20;;;;;;4868388;29;20100;-78
2021/09/07 08:46:42;;;;;;;19.55;10.93;;;22.80;66.50;;;;;;4881615;29;20049;-78
2021/09/07 08:49:08;;;;;;;26.93;11.87;;;22.80;66.50;;;;;;4885227;29;20034;-78
2021/09/07 08:51:34;;;;;;;22.75;10.57;;;22.80;63.70;;;;;;4880259;29;20027;-78
2021/09/07 08:54:01;;;;;;;19.42;10.18;;;22.80;63.60;;;;;;4891056;29;20029;-78
2021/09/07 08:56:27;;;;;;;16.17;9.27;;;22.70;65.10;;;;;;4891830;29;20033;-78
2021/09/07 08:58:53;;;;;;;14.40;9.02;;;22.90;63.60;;;;;;4880252;29;20026;-78
2021/09/07 09:01:18;;;;;;;13.95;7.90;;;23.00;64.40;;;;;;4854297;29;20040;-78
2021/09/07 09:03:46;;;;;;;14.90;8.63;;;23.10;62.20;;;;;;4856133;29;20034;-78
2021/09/07 09:06:13;;;;;;;17.55;8.20;;;23.20;61.00;;;;;;4849380;29;20237;-78
2021/09/07 09:08:39;;;;;;;15.30;8.20;;;23.20;59.50;;;;;;4854633;29;20030;-78
2021/09/07 09:11:06;;;;;;;14.23;6.85;;;23.20;59.80;;;;;;4855882;29;20279;-78
2021/09/07 09:13:45;;;;;;;20.88;8.02;;;23.00;59.50;;;;;;4854608;29;20030;-78
2021/09/07 09:16:12;;;;;;;11.68;7.18;;;22.90;59.30;;;;;;4843599;29;20036;-78
2021/09/07 09:18:40;;;;;;;14.80;7.22;;;22.90;58.70;;;;;;4857751;29;20220;-78
2021/09/07 09:21:27;;;;;;;18.27;7.93;;;22.70;59.10;;;;;;4872965;29;20329;-78
2021/09/07 09:24:19;;;;;;;14.73;7.82;;;22.60;60.20;;;;;;4873078;29;20056;-78
2021/09/07 09:27:01;;;;;;;15.60;7.70;;;22.60;59.40;;;;;;4857656;29;20029;-77
2021/09/07 09:29:35;;;;;;;16.63;7.65;;;22.70;60.00;;;;;;4873103;29;20032;-78
2021/09/07 09:32:06;;;;;;;12.02;6.43;;;22.60;59.70;;;;;;4858350;29;20033;-78
2021/09/07 09:34:35;;;;;;;23.02;9.18;;;22.60;59.00;;;;;;4858255;29;20049;-79
2021/09/07 09:37:06;;;;;;;16.20;8.43;;;22.50;58.50;;;;;;4858488;29;20096;-79
2021/09/07 09:39:51;;;;;;;18.17;7.88;;;22.40;59.30;;;;;;4873480;29;20030;-78
2021/09/07 09:42:28;;;;;;;26.75;7.85;;;22.50;59.70;;;;;;4858296;29;20038;-78
2021/09/07 09:45:02;;;;;;;15.70;7.55;;;22.60;61.60;;;;;;4874175;29;20069;-78
2021/09/07 09:47:41;;;;;;;20.52;8.05;;;22.80;61.40;;;;;;4873872;29;20064;-78
2021/09/07 09:50:08;;;;;;;17.08;7.72;;;22.80;58.60;;;;;;4874385;29;20049;-78
2021/09/07 09:52:37;;;;;;;18.65;7.63;;;22.80;60.30;;;;;;4859156;29;20039;-77
2021/09/07 09:55:05;;;;;;;17.13;7.60;;;22.90;59.30;;;;;;4875366;29;20096;-77
2021/09/07 09:57:33;;;;;;;20.52;7.45;;;23.00;59.80;;;;;;4858592;29;20037;-78
2021/09/07 10:00:02;;;;;;;19.08;7.53;;;23.00;60.00;;;;;;4858299;29;20033;-78
2021/09/07 10:02:38;;;;;;;14.73;6.80;;;23.10;58.60;;;;;;4875271;29;20089;-78
2021/09/07 10:05:05;;;;;;;14.77;7.23;;;23.00;59.10;;;;;;4858795;29;20347;-78
2021/09/07 10:07:32;;;;;;;15.55;6.65;;;23.00;59.50;;;;;;4874843;29;20046;-78
2021/09/07 10:09:58;;;;;;;13.65;6.38;;;23.00;61.10;;;;;;4875924;29;20029;-79
2021/09/07 10:12:29;;;;;;;12.55;6.75;;;23.30;61.30;;;;;;4875449;29;20036;-78
2021/09/07 10:15:17;;;;;;;14.35;7.18;;;23.20;59.90;;;;;;4876725;29;20064;-78
2021/09/07 10:20:35;;;;;;;19.40;7.18;;;23.20;59.80;;;;;;4876266;29;20037;-78
2021/09/07 10:25:59;;;;;;;16.55;6.35;;;23.20;59.80;;;;;;4866777;29;20043;-78
2021/09/07 10:28:29;;;;;;;11.85;7.00;;;23.20;60.00;;;;;;4859358;29;20057;-79
2021/09/07 10:30:58;;;;;;;24.15;7.20;;;23.10;60.90;;;;;;4859330;29;20042;-78
2021/09/07 10:33:31;;;;;;;15.60;7.65;;;23.20;61.00;;;;;;4859538;29;20018;-78
2021/09/07 10:36:04;;;;;;;32.42;6.55;;;23.20;61.90;;;;;;4844226;29;20041;-78
2021/09/07 10:38:37;;;;;;;28.27;6.78;;;23.40;60.20;;;;;;4859521;29;20030;-80
2021/09/07 10:41:03;;;;;;;24.05;5.93;;;23.40;61.40;;;;;;4874555;29;20038;-78
2021/09/07 10:44:05;;;;;;;15.53;6.27;;;23.60;61.50;;;;;;4843766;29;20072;-78
2021/09/07 10:46:48;;;;;;;20.73;7.20;;;23.70;59.80;;;;;;4850111;29;20357;-78
2021/09/07 10:49:25;;;;;;;27.70;6.50;;;23.70;61.40;;;;;;4878131;29;20036;-78
2021/09/07 10:52:12;;;;;;;26.02;7.70;;;24.00;62.60;;;;;;4877803;29;20045;-78
2021/09/07 10:55:13;;;;;;;22.17;7.38;;;24.10;59.80;;;;;;4879084;29;20018;-78
2021/09/07 10:57:48;;;;;;;14.20;6.80;;;24.30;59.50;;;;;;4860713;29;20041;-78
2021/09/07 11:00:13;;;;;;;22.50;7.68;;;24.20;58.30;;;;;;4862500;29;20225;-78
2021/09/07 11:02:41;;;;;;;20.20;6.97;;;24.30;58.70;;;;;;4877698;29;20029;-78
2021/09/07 11:05:09;;;;;;;23.52;7.40;;;24.30;58.40;;;;;;4877876;29;20021;-78
2021/09/07 11:07:45;;;;;;;25.60;6.82;;;24.40;58.90;;;;;;4877721;29;20018;-78
2021/09/07 11:10:19;;;;;;;21.67;7.88;;;24.50;58.90;;;;;;4871744;29;20029;-78
2021/09/07 11:13:04;;;;;;;28.55;7.32;;;24.50;57.20;;;;;;4870011;29;20045;-78
2021/09/07 11:15:33;;;;;;;25.52;7.82;;;24.40;57.50;;;;;;4873901;29;20025;-79
2021/09/07 11:18:01;;;;;;;20.13;6.43;;;24.40;57.20;;;;;;4859499;29;20059;-78
2021/09/07 11:20:35;;;;;;;20.50;7.22;;;24.50;57.40;;;;;;4858332;29;20352;-78
2021/09/07 11:23:28;;;;;;;26.40;6.22;;;24.60;57.00;;;;;;4843024;29;20058;-78
2021/09/07 11:26:10;;;;;;;14.23;6.35;;;24.60;56.80;;;;;;4824253;29;20042;-79
2021/09/07 11:28:37;;;;;;;27.77;6.50;;;24.60;56.10;;;;;;4818203;29;20023;-78
2021/09/07 11:31:05;;;;;;;16.48;6.97;;;24.70;56.40;;;;;;4808752;29;20034;-78
2021/09/07 11:33:41;;;;;;;14.35;5.85;;;24.80;57.00;;;;;;4823806;29;20026;-79
2021/09/07 11:36:15;;;;;;;22.80;6.55;;;24.90;54.70;;;;;;4824735;29;20489;-78
2021/09/07 11:38:44;;;;;;;12.50;6.07;;;24.90;56.60;;;;;;4815323;29;20147;-78
2021/09/07 11:41:21;;;;;;;15.60;6.10;;;25.00;56.20;;;;;;4821246;29;20050;-78
2021/09/07 11:43:50;;;;;;;14.82;5.97;;;25.10;55.00;;;;;;4824126;29;20140;-78
2021/09/07 11:46:18;;;;;;;19.05;6.65;;;25.00;55.90;;;;;;4836574;29;20050;-78
2021/09/07 11:48:48;;;;;;;18.30;5.80;;;25.10;54.10;;;;;;4801118;29;20031;-78
2021/09/07 11:51:17;;;;;;;13.30;6.18;;;24.90;54.60;;;;;;4792299;29;20035;-78
2021/09/07 11:53:44;;;;;;;26.55;6.35;;;24.70;56.80;;;;;;4808637;29;20038;-78
2021/09/07 11:56:28;;;;;;;17.05;6.20;;;24.70;56.50;;;;;;4833613;29;20139;-78
2021/09/07 11:59:09;;;;;;;19.35;6.18;;;24.70;55.10;;;;;;4825043;29;20030;-79
2021/09/07 12:01:56;;;;;;;15.32;6.22;;;24.70;54.60;;;;;;4827684;29;20052;-78
2021/09/07 12:04:23;;;;;;;17.83;5.97;;;24.60;54.70;;;;;;4862399;29;20336;-78
2021/09/07 12:06:54;;;;;;;12.98;6.00;;;24.70;55.30;;;;;;4876604;29;20090;-78
2021/09/07 12:09:30;;;;;;;13.90;6.18;;;24.80;55.20;;;;;;4877157;29;20029;-78
2021/09/07 12:12:11;;;;;;;9.70;5.83;;;24.90;54.70;;;;;;4878263;29;20038;-78
2021/09/07 12:14:45;;;;;;;13.00;5.30;;;24.90;55.70;;;;;;4844652;29;20302;-78
2021/09/07 12:17:17;;;;;;;15.07;7.40;;;25.00;55.40;;;;;;4884286;29;20029;-78
2021/09/07 12:19:47;;;;;;;11.32;5.63;;;25.10;54.80;;;;;;4871746;29;20040;-78
2021/09/07 12:22:28;;;;;;;15.65;5.90;;;25.10;55.60;;;;;;4877983;29;20037;-78
2021/09/07 12:25:18;;;;;;;17.23;6.30;;;25.10;55.40;;;;;;4842187;29;20026;-79
2021/09/07 12:27:48;;;;;;;15.20;6.05;;;25.10;54.40;;;;;;4841961;29;20049;-78
2021/09/07 12:30:27;;;;;;;11.07;6.45;;;25.20;55.70;;;;;;4839936;29;20033;-78
2021/09/07 12:33:14;;;;;;;22.85;5.90;;;25.30;55.30;;;;;;4842606;29;20250;-78
2021/09/07 12:35:53;;;;;;;14.82;6.18;;;25.50;54.70;;;;;;4842888;29;20153;-78
2021/09/07 12:38:21;;;;;;;18.40;7.30;;;25.40;54.30;;;;;;4842548;29;20059;-78
2021/09/07 12:40:53;;;;;;;12.98;6.00;;;25.40;56.90;;;;;;4841475;29;20034;-78
2021/09/07 12:43:27;;;;;;;21.10;6.22;;;25.60;55.10;;;;;;4808890;29;20034;-79
2021/09/07 12:45:55;;;;;;;10.95;6.03;;;25.50;54.40;;;;;;4816131;29;20103;-78
2021/09/07 12:48:21;;;;;;;21.65;6.13;;;25.50;55.00;;;;;;4791222;29;20038;-78
2021/09/07 12:50:47;;;;;;;22.75;6.10;;;25.60;53.90;;;;;;4805298;29;20077;-78
2021/09/07 12:53:19;;;;;;;13.93;5.70;;;25.40;54.30;;;;;;4791162;29;20038;-78
2021/09/07 12:55:46;;;;;;;13.60;6.47;;;25.20;54.80;;;;;;4803343;29;20121;-79
2021/09/07 12:58:12;;;;;;;14.73;5.67;;;25.30;54.20;;;;;;4827798;29;20057;-78
2021/09/07 13:00:39;;;;;;;19.15;5.90;;;25.30;54.20;;;;;;4835727;29;20037;-78
2021/09/07 13:03:05;;;;;;;19.08;6.28;;;25.20;54.00;;;;;;4825768;29;20030;-78
2021/09/07 13:05:35;;;;;;;15.70;6.10;;;25.10;54.70;;;;;;4827685;29;20105;-78
2021/09/07 13:08:01;;;;;;;15.68;5.97;;;25.10;54.10;;;;;;4827434;29;20065;-78
2021/09/07 13:10:26;;;;;;;14.48;5.22;;;25.00;55.20;;;;;;4827569;29;20034;-78
2021/09/07 13:12:52;;;;;;;10.07;5.30;;;25.00;55.40;;;;;;4828091;29;20103;-78
2021/09/07 13:15:18;;;;;;;20.02;5.80;;;24.90;55.80;;;;;;4827820;29;20110;-78
2021/09/07 13:17:44;;;;;;;11.65;6.13;;;25.00;57.40;;;;;;4824943;29;20060;-78
2021/09/07 13:20:10;;;;;;;12.70;6.00;;;25.10;55.40;;;;;;4824640;29;20034;-78
2021/09/07 13:22:36;;;;;;;15.70;5.73;;;25.10;55.50;;;;;;4840849;29;20031;-78
2021/09/07 13:25:02;;;;;;;14.15;5.80;;;25.30;55.30;;;;;;4824507;29;20480;-78
2021/09/07 13:27:28;;;;;;;9.70;5.82;;;25.20;57.20;;;;;;4830914;29;20037;-78
2021/09/07 13:29:54;;;;;;;12.20;6.00;;;25.30;55.30;;;;;;4838929;29;20025;-78
2021/09/07 13:32:20;;;;;;;24.65;6.57;;;25.40;56.30;;;;;;4821675;29;20030;-78
2021/09/07 13:34:45;;;;;;;12.40;5.00;;;25.50;54.70;;;;;;4822584;29;20029;-78
2021/09/07 13:37:11;;;;;;;15.07;6.15;;;25.50;53.00;;;;;;4821347;29;20151;-78
2021/09/07 13:39:37;;;;;;;8.43;5.20;;;25.30;53.30;;;;;;4828244;29;20093;-78
2021/09/07 13:42:03;;;;;;;15.80;7.32;;;25.20;56.20;;;;;;4813140;29;20036;-77
2021/09/07 13:44:29;;;;;;;18.38;6.72;;;25.30;55.00;;;;;;4831856;29;20022;-78
2021/09/07 13:46:54;;;;;;;13.60;5.60;;;25.20;55.30;;;;;;4824231;29;20049;-78
2021/09/07 13:49:20;;;;;;;17.55;6.30;;;25.10;55.00;;;;;;4825163;29;20078;-77
2021/09/07 13:51:46;;;;;;;16.38;7.53;;;25.00;56.50;;;;;;4839862;29;20030;-78
2021/09/07 13:54:12;;;;;;;21.98;7.93;;;25.00;56.70;;;;;;4825815;29;20037;-78
2021/09/07 13:56:38;;;;;;;23.05;7.03;;;25.10;57.20;;;;;;4844006;29;20152;-78
2021/09/07 13:59:03;;;;;;;10.48;6.63;;;25.20;56.90;;;;;;4860109;29;20030;-77
2021/09/07 14:01:29;;;;;;;16.40;6.30;;;25.20;57.90;;;;;;4860072;29;20029;-78
2021/09/07 14:03:55;;;;;;;15.27;6.15;;;25.10;58.00;;;;;;4843651;29;20320;-78
2021/09/07 14:06:21;;;;;;;10.80;6.13;;;24.90;56.40;;;;;;4828078;29;20079;-77
2021/09/07 14:08:48;;;;;;;13.05;6.35;;;24.80;57.20;;;;;;4835525;29;20207;-77
2021/09/07 14:11:15;;;;;;;22.67;6.93;;;24.70;56.90;;;;;;4810950;29;20026;-78
2021/09/07 14:13:41;;;;;;;12.52;6.75;;;24.70;56.90;;;;;;4825645;29;20026;-78
2021/09/07 14:16:07;;;;;;;15.88;6.60;;;24.50;56.30;;;;;;4851750;29;20018;-77
2021/09/07 14:18:32;;;;;;;14.02;7.18;;;24.50;59.20;;;;;;4859907;29;20064;-78
2021/09/07 14:20:59;;;;;;;17.92;6.43;;;24.50;56.90;;;;;;4828294;29;20026;-77
2021/09/07 14:23:26;;;;;;;15.82;7.18;;;24.40;56.40;;;;;;4859854;29;20029;-77
2021/09/07 14:25:53;;;;;;;14.23;6.30;;;24.30;58.10;;;;;;4843461;29;20094;-77
2021/09/07 14:28:21;;;;;;;17.23;6.23;;;24.40;57.80;;;;;;4847576;29;20022;-78
2021/09/07 14:30:47;;;;;;;17.08;6.45;;;24.50;59.00;;;;;;4823666;29;20049;-77
2021/09/07 14:33:13;;;;;;;18.55;6.05;;;24.60;59.50;;;;;;4841248;29;20045;-78
2021/09/07 14:35:38;;;;;;;23.20;6.63;;;24.70;58.90;;;;;;4852072;29;20113;-78
2021/09/07 14:38:04;;;;;;;23.58;6.20;;;24.70;58.60;;;;;;4817263;29;20053;-78
2021/09/07 14:40:30;;;;;;;26.17;6.63;;;24.80;56.40;;;;;;4817876;29;20093;-77
2021/09/07 14:42:56;;;;;;;16.50;6.47;;;24.90;56.20;;;;;;4822498;29;20038;-77
2021/09/07 14:45:21;;;;;;;16.75;6.35;;;24.90;56.00;;;;;;4822965;29;20022;-78
2021/09/07 14:47:48;;;;;;;12.13;6.00;;;25.00;55.70;;;;;;4853671;29;20037;-78
2021/09/07 14:50:14;;;;;;;24.05;7.13;;;25.10;56.50;;;;;;4855703;29;20053;-78
2021/09/07 14:52:42;;;;;;;23.33;6.50;;;25.20;56.20;;;;;;4839355;29;20112;-77
2021/09/07 14:55:11;;;;;;;14.75;6.28;;;25.30;55.80;;;;;;4855873;29;20037;-78
2021/09/07 14:57:38;;;;;;;20.60;5.78;;;25.30;55.70;;;;;;4824418;29;20048;-78
2021/09/07 15:00:06;;;;;;;17.63;6.60;;;25.30;54.50;;;;;;4852456;29;20049;-78
2021/09/07 15:02:31;;;;;;;11.32;5.47;;;25.30;55.20;;;;;;4861575;29;20053;-77
2021/09/07 15:04:57;;;;;;;13.98;5.90;;;25.40;54.30;;;;;;4839165;29;20025;-79
2021/09/07 15:07:23;;;;;;;14.57;6.47;;;25.30;54.50;;;;;;4852456;29;20062;-78
2021/09/07 15:09:49;;;;;;;14.32;6.15;;;25.30;55.50;;;;;;4838962;29;20347;-77
2021/09/07 15:12:18;;;;;;;13.48;6.60;;;25.40;56.20;;;;;;4838919;29;20089;-77
2021/09/07 15:14:44;;;;;;;26.27;6.90;;;25.40;54.80;;;;;;4840767;29;20112;-77
2021/09/07 15:17:10;;;;;;;12.00;6.38;;;25.40;55.00;;;;;;4847164;29;20045;-78
2021/09/07 15:19:36;;;;;;;17.27;6.50;;;25.40;55.60;;;;;;4855967;29;20044;-78
2021/09/07 15:22:02;;;;;;;;;;;25.40;54.60;;;;;;4842142;29;20030;-78
2021/09/07 15:24:28;;;;;;;31.77;7.70;;;25.40;56.10;;;;;;4869503;29;19908;-78
2021/09/07 15:26:54;;;;;;;18.27;6.30;;;25.40;55.70;;;;;;4851671;29;20034;-78
2021/09/07 15:29:21;;;;;;;20.30;6.60;;;25.40;54.80;;;;;;4861203;29;20026;-77